Time;durP1;ratioP1;P1;durP2;ratioP2;P2;SDS_P1;SDS_P2;PMS_P1;PMS_P2;Temp;Humidity;BMP_temperature;BMP_pressure;BME280_temperature;BME280_humidity;BME280_pressure;Samples;Min_cycle;Max_cycle;Signal;HPM_P1;HPM_P2
2022/08/01 00:01:56;;;;;;;7.10;3.27;;;19.00;37.00;;;;;;5060801;28;46357;-67
2022/08/01 00:04:22;;;;;;;7.97;2.93;;;19.20;37.60;;;;;;5059859;28;46609;-68
2022/08/01 00:06:48;;;;;;;6.73;3.87;;;;;;;;;;5061047;28;46423;-68
2022/08/01 00:09:14;;;;;;;4.63;3.13;;;;;;;;;;5061392;28;45803;-69
2022/08/01 00:11:39;;;;;;;4.63;3.47;;;19.40;42.30;;;;;;5062034;28;47097;-68
2022/08/01 00:14:05;;;;;;;4.43;2.90;;;19.50;40.10;;;;;;5060493;28;46302;-68
2022/08/01 00:16:30;;;;;;;7.43;2.97;;;19.80;37.10;;;;;;5061194;28;47113;-68
2022/08/01 00:18:56;;;;;;;9.43;3.10;;;19.50;38.80;;;;;;5060123;28;46400;-68
2022/08/01 00:21:22;;;;;;;4.47;2.90;;;;;;;;;;5062234;28;46420;-67
2022/08/01 00:23:48;;;;;;;5.23;3.10;;;19.70;44.00;;;;;;5059891;28;46603;-67
2022/08/01 00:26:14;;;;;;;4.40;3.00;;;;;;;;;;5059052;28;46936;-67
2022/08/01 00:28:40;;;;;;;4.90;3.23;;;;;;;;;;5059581;28;45938;-67
2022/08/01 00:31:06;;;;;;;7.97;3.03;;;18.80;42.20;;;;;;5062184;28;46690;-67
2022/08/01 00:33:32;;;;;;;6.33;2.93;;;;;;;;;;5059661;28;46456;-67
2022/08/01 00:35:58;;;;;;;5.13;3.10;;;18.90;37.30;;;;;;5060945;28;47047;-67
2022/08/01 00:38:24;;;;;;;6.60;3.13;;;;;;;;;;5060539;28;46376;-67
2022/08/01 00:40:50;;;;;;;4.60;3.33;;;18.80;35.10;;;;;;5060476;28;46430;-67
2022/08/01 00:43:16;;;;;;;6.00;3.33;;;;;;;;;;5061421;28;46484;-67
2022/08/01 00:45:42;;;;;;;5.53;3.20;;;18.70;39.50;;;;;;5060875;28;47242;-67
2022/08/01 00:48:08;;;;;;;7.10;4.57;;;;;;;;;;5059446;28;46425;-67
2022/08/01 00:50:34;;;;;;;6.90;3.80;;;18.70;44.40;;;;;;5062332;28;46718;-68
2022/08/01 00:53:00;;;;;;;6.33;3.67;;;18.50;36.00;;;;;;5061833;28;46419;-68
2022/08/01 00:55:27;;;;;;;8.40;4.10;;;18.50;36.10;;;;;;5059914;28;47027;-67
2022/08/01 00:57:54;;;;;;;4.97;2.83;;;18.40;36.10;;;;;;5059088;28;46325;-67
2022/08/01 01:00:20;;;;;;;4.93;3.50;;;18.40;36.40;;;;;;5061267;28;46315;-68
2022/08/01 01:02:45;;;;;;;5.00;3.27;;;18.30;40.00;;;;;;5060796;28;46754;-67
2022/08/01 01:05:11;;;;;;;7.43;3.60;;;;;;;;;;5061617;28;46493;-67
2022/08/01 01:07:46;;;;;;;5.93;3.10;;;18.30;37.00;;;;;;5060582;28;46478;-67
2022/08/01 01:10:18;;;;;;;5.73;3.70;;;18.20;37.10;;;;;;5060972;28;46297;-67
2022/08/01 01:13:10;;;;;;;4.87;3.40;;;18.20;37.10;;;;;;5059909;28;46373;-68
2022/08/01 01:15:56;;;;;;;4.60;3.20;;;18.20;41.50;;;;;;5059424;28;47284;-67
2022/08/01 01:18:42;;;;;;;5.37;3.33;;;18.00;37.50;;;;;;5059732;28;45796;-66
2022/08/01 01:21:45;;;;;;;6.10;3.70;;;18.00;40.70;;;;;;5060314;28;46409;-67
2022/08/01 01:24:39;;;;;;;4.87;3.10;;;18.00;37.70;;;;;;5060288;28;46645;-67
2022/08/01 01:27:35;;;;;;;4.23;2.97;;;18.00;37.70;;;;;;5060159;28;46353;-67
2022/08/01 01:30:01;;;;;;;10.37;3.50;;;17.70;43.20;;;;;;5058127;28;46341;-67
2022/08/01 01:32:33;;;;;;;6.37;3.33;;;17.90;41.60;;;;;;5059723;28;46499;-67
2022/08/01 01:35:02;;;;;;;7.37;3.17;;;18.10;44.30;;;;;;5059587;28;46382;-67
2022/08/01 01:37:31;;;;;;;5.90;3.87;;;17.90;37.90;;;;;;5058024;28;47056;-67
2022/08/01 01:39:59;;;;;;;7.57;3.90;;;17.70;39.40;;;;;;5059580;28;46440;-67
2022/08/01 01:42:26;;;;;;;4.73;3.30;;;17.80;38.00;;;;;;5058720;28;46706;-66
2022/08/01 01:44:52;;;;;;;5.50;3.63;;;;;;;;;;5059253;28;46378;-66
2022/08/01 01:47:18;;;;;;;6.90;3.90;;;;;;;;;;5059537;28;46391;-67
2022/08/01 01:49:46;;;;;;;13.70;4.10;;;17.70;38.20;;;;;;5059275;28;46352;-67
2022/08/01 01:52:15;;;;;;;4.30;3.00;;;17.60;40.80;;;;;;5057998;28;46280;-67
2022/08/01 01:54:46;;;;;;;6.37;3.40;;;18.60;39.30;;;;;;5059571;28;46377;-69
2022/08/01 01:57:12;;;;;;;4.60;3.00;;;17.70;38.50;;;;;;5058607;28;46541;-67
2022/08/01 01:59:39;;;;;;;6.10;3.30;;;17.70;38.60;;;;;;5059197;28;46454;-66
2022/08/01 02:02:07;;;;;;;6.77;3.93;;;17.70;38.80;;;;;;5059722;28;46430;-67
2022/08/01 02:04:37;;;;;;;13.97;3.70;;;17.60;45.30;;;;;;5056355;28;46416;-66
2022/08/01 02:07:05;;;;;;;9.27;3.73;;;17.50;45.70;;;;;;5057917;28;46588;-67
2022/08/01 02:09:33;;;;;;;4.40;3.10;;;17.60;38.80;;;;;;5062201;28;45846;-66
2022/08/01 02:12:00;;;;;;;6.30;3.90;;;17.60;39.00;;;;;;5059689;28;46728;-67
2022/08/01 02:14:29;;;;;;;5.57;3.30;;;17.60;38.80;;;;;;5058437;28;46620;-67
2022/08/01 02:16:57;;;;;;;8.53;3.70;;;17.60;39.20;;;;;;5058755;28;46457;-67
2022/08/01 02:19:23;;;;;;;5.27;3.37;;;;;;;;;;5058880;28;46592;-67
2022/08/01 02:21:56;;;;;;;5.70;3.33;;;17.50;45.90;;;;;;5059247;28;46421;-67
2022/08/01 02:24:31;;;;;;;4.37;2.83;;;17.50;39.30;;;;;;5058110;28;46306;-67
2022/08/01 02:27:02;;;;;;;8.40;3.17;;;17.50;39.20;;;;;;5056697;28;46178;-66
2022/08/01 02:29:54;;;;;;;4.40;2.90;;;17.50;43.90;;;;;;5057995;28;45830;-67
2022/08/01 02:32:25;;;;;;;5.20;3.50;;;17.40;40.90;;;;;;5043140;28;46537;-66
2022/08/01 02:34:53;;;;;;;5.37;3.77;;;17.40;39.60;;;;;;5059739;28;46377;-67
2022/08/01 02:37:20;;;;;;;8.40;3.70;;;17.30;39.70;;;;;;5054618;28;47177;-67
2022/08/01 02:39:50;;;;;;;4.83;3.33;;;17.30;39.80;;;;;;5055045;28;46267;-66
2022/08/01 02:42:18;;;;;;;5.13;3.40;;;17.30;40.00;;;;;;5058183;28;46541;-66
2022/08/01 02:44:46;;;;;;;7.03;3.73;;;17.30;40.40;;;;;;5057379;28;45838;-67
2022/08/01 02:47:12;;;;;;;5.37;3.13;;;17.30;40.10;;;;;;5057061;28;46822;-67
2022/08/01 02:49:43;;;;;;;6.83;3.40;;;17.30;40.20;;;;;;5057971;28;46017;-67
2022/08/01 02:52:13;;;;;;;5.20;3.47;;;17.50;41.20;;;;;;5056157;28;46409;-66
2022/08/01 02:54:40;;;;;;;5.30;3.43;;;17.30;40.00;;;;;;5057787;28;46468;-67
2022/08/01 02:57:07;;;;;;;5.40;3.70;;;17.30;40.10;;;;;;5058175;28;46702;-68
2022/08/01 02:59:37;;;;;;;9.33;3.83;;;17.40;40.40;;;;;;5059860;28;46314;-68
2022/08/01 03:02:04;;;;;;;6.03;3.30;;;17.30;40.10;;;;;;5057636;28;46334;-68
2022/08/01 03:04:33;;;;;;;5.87;3.20;;;17.20;45.60;;;;;;5058109;28;46416;-68
2022/08/01 03:07:01;;;;;;;7.20;2.90;;;17.30;47.90;;;;;;5057263;28;46645;-67
2022/08/01 03:09:29;;;;;;;7.87;3.47;;;17.10;45.80;;;;;;5059334;28;46366;-67
2022/08/01 03:11:58;;;;;;;7.00;3.73;;;17.30;41.30;;;;;;5058127;28;46343;-67
2022/08/01 03:14:25;;;;;;;4.70;2.80;;;17.30;40.40;;;;;;5060145;28;46294;-67
2022/08/01 03:16:53;;;;;;;7.20;3.83;;;17.30;40.50;;;;;;5061614;28;46372;-67
2022/08/01 03:19:22;;;;;;;6.23;3.70;;;17.30;40.60;;;;;;5061590;28;46699;-67
2022/08/01 03:21:49;;;;;;;5.10;3.43;;;16.90;43.70;;;;;;5062749;28;46410;-67
2022/08/01 03:24:17;;;;;;;5.43;3.60;;;17.30;40.70;;;;;;5062359;28;46311;-66
2022/08/01 03:26:44;;;;;;;14.23;3.47;;;17.30;40.80;;;;;;5061805;28;47057;-67
2022/08/01 03:29:15;;;;;;;11.10;3.73;;;17.50;44.40;;;;;;5061515;28;46431;-67
2022/08/01 03:31:44;;;;;;;5.73;3.73;;;17.20;40.80;;;;;;5062678;28;46282;-68
2022/08/01 03:34:10;;;;;;;6.07;3.20;;;17.00;50.20;;;;;;5060583;28;46483;-67
2022/08/01 03:36:43;;;;;;;5.70;3.40;;;17.20;41.10;;;;;;5061660;28;47493;-66
2022/08/01 03:39:11;;;;;;;5.13;3.30;;;17.40;49.10;;;;;;5061833;28;46441;-67
2022/08/01 03:41:41;;;;;;;6.33;3.70;;;17.20;41.00;;;;;;5061329;28;46522;-68
2022/08/01 03:44:20;;;;;;;6.23;3.03;;;17.20;40.90;;;;;;5062431;28;46385;-68
2022/08/01 03:46:56;;;;;;;4.93;3.63;;;17.30;41.10;;;;;;5061728;28;46674;-67
2022/08/01 03:49:25;;;;;;;8.03;3.60;;;17.20;40.80;;;;;;5060206;28;46417;-67
2022/08/01 03:51:53;;;;;;;5.63;3.70;;;17.30;40.90;;;;;;5061550;28;46479;-67
2022/08/01 03:54:24;;;;;;;8.50;3.70;;;17.20;40.90;;;;;;5061258;28;46452;-67
2022/08/01 03:56:51;;;;;;;10.43;3.87;;;17.60;49.40;;;;;;5060794;28;46925;-66
2022/08/01 03:59:18;;;;;;;7.17;3.60;;;17.30;41.00;;;;;;5060399;28;46437;-67
2022/08/01 04:01:45;;;;;;;6.00;3.50;;;17.20;40.80;;;;;;5060713;28;46329;-67
2022/08/01 04:04:12;;;;;;;7.43;3.90;;;17.30;40.90;;;;;;5059805;28;46370;-66
2022/08/01 04:06:38;;;;;;;6.70;3.30;;;;;;;;;;5061488;28;46384;-67
2022/08/01 04:09:04;;;;;;;4.50;3.13;;;;;;;;;;5060929;28;46356;-67
2022/08/01 04:11:31;;;;;;;8.00;3.23;;;;;;;;;;5061206;28;46400;-67
2022/08/01 04:13:57;;;;;;;5.33;3.33;;;;;;;;;;5062169;28;46292;-67
2022/08/01 04:16:23;;;;;;;7.13;3.30;;;;;;;;;;5060083;28;47100;-68
2022/08/01 04:18:49;;;;;;;5.47;3.43;;;;;;;;;;5061565;28;46433;-67
2022/08/01 04:21:20;;;;;;;5.63;3.50;;;17.40;40.40;;;;;;5061820;28;46481;-67
2022/08/01 04:23:47;;;;;;;7.20;3.33;;;17.80;43.30;;;;;;5060634;28;46387;-67
2022/08/01 04:26:15;;;;;;;7.63;3.23;;;17.30;44.40;;;;;;5060497;28;47231;-68
2022/08/01 04:28:42;;;;;;;6.00;3.87;;;17.90;47.90;;;;;;5059000;28;46460;-69
2022/08/01 04:31:09;;;;;;;9.83;3.73;;;17.70;40.20;;;;;;5060742;28;45793;-67
2022/08/01 04:33:37;;;;;;;5.97;3.10;;;17.70;40.20;;;;;;5061336;28;46430;-67
2022/08/01 04:36:05;;;;;;;7.37;3.70;;;17.70;40.00;;;;;;5060704;28;47230;-67
2022/08/01 04:38:36;;;;;;;4.90;2.93;;;17.80;46.70;;;;;;5060693;28;46815;-67
2022/08/01 04:41:02;;;;;;;6.87;2.97;;;;;;;;;;5060409;28;46383;-67
2022/08/01 04:43:28;;;;;;;4.00;2.77;;;17.90;42.10;;;;;;5061364;28;46512;-67
2022/08/01 04:45:55;;;;;;;6.73;3.70;;;17.80;41.00;;;;;;5061332;28;46422;-67
2022/08/01 04:48:21;;;;;;;5.53;3.20;;;18.20;39.30;;;;;;5058660;28;46437;-67
2022/08/01 04:50:47;;;;;;;6.63;3.00;;;;;;;;;;5059911;28;46517;-67
2022/08/01 04:53:18;;;;;;;7.93;3.10;;;18.50;38.00;;;;;;5060779;28;46476;-67
2022/08/01 04:55:45;;;;;;;4.30;3.17;;;18.80;38.00;;;;;;5058484;28;47267;-68
2022/08/01 04:58:11;;;;;;;5.00;3.30;;;;;;;;;;5063009;28;46350;-66
2022/08/01 05:00:37;;;;;;;4.97;2.70;;;;;;;;;;5062154;28;46432;-67
2022/08/01 05:03:03;;;;;;;5.57;3.07;;;19.20;38.50;;;;;;5061826;28;46325;-67
2022/08/01 05:05:30;;;;;;;5.60;3.00;;;18.90;37.90;;;;;;5060299;28;46635;-68
2022/08/01 05:07:56;;;;;;;6.67;3.20;;;;;;;;;;5061006;28;46361;-67
2022/08/01 05:10:22;;;;;;;4.70;3.00;;;;;;;;;;5060468;28;46322;-67
2022/08/01 05:12:48;;;;;;;6.30;3.13;;;19.10;37.50;;;;;;5060996;28;46580;-67
2022/08/01 05:15:13;;;;;;;7.33;3.40;;;19.50;36.60;;;;;;5059968;28;46723;-67
2022/08/01 05:17:39;;;;;;;13.20;3.10;;;;;;;;;;5060858;28;46452;-67
2022/08/01 05:20:08;;;;;;;8.23;3.77;;;20.00;35.80;;;;;;5060235;28;46548;-67
2022/08/01 05:22:34;;;;;;;4.33;2.80;;;;;;;;;;5062419;28;46609;-67
2022/08/01 05:25:00;;;;;;;4.50;2.80;;;21.10;34.50;;;;;;5059944;28;46012;-67
2022/08/01 05:27:26;;;;;;;4.53;2.40;;;21.50;36.90;;;;;;5060375;28;46786;-67
2022/08/01 05:29:52;;;;;;;5.10;2.93;;;;;;;;;;5058647;28;46395;-67
2022/08/01 05:32:18;;;;;;;6.93;3.13;;;;;;;;;;5059679;28;46685;-66
2022/08/01 05:34:44;;;;;;;6.70;2.73;;;;;;;;;;5059561;28;46133;-67
2022/08/01 05:37:10;;;;;;;7.17;2.70;;;;;;;;;;5060550;28;46558;-67
2022/08/01 05:39:36;;;;;;;4.60;2.50;;;25.80;25.50;;;;;;5059764;28;46482;-68
2022/08/01 05:42:02;;;;;;;4.90;3.10;;;27.20;26.40;;;;;;5061257;28;46453;-69
2022/08/01 05:44:28;;;;;;;4.60;2.77;;;;;;;;;;5058003;28;46885;-68
2022/08/01 05:46:54;;;;;;;6.40;2.53;;;28.80;21.20;;;;;;5060075;28;46283;-67
2022/08/01 05:49:19;;;;;;;5.63;2.20;;;28.70;18.30;;;;;;5059958;28;46416;-66
2022/08/01 05:51:45;;;;;;;3.70;2.80;;;;;;;;;;5061435;28;46594;-67
2022/08/01 05:54:11;;;;;;;8.10;2.70;;;;;;;;;;5060712;28;46365;-68
2022/08/01 05:56:37;;;;;;;4.70;2.47;;;;;;;;;;5059521;28;46575;-66
2022/08/01 05:59:03;;;;;;;4.77;2.70;;;;;;;;;;5060276;28;46421;-68
2022/08/01 06:01:29;;;;;;;5.40;3.00;;;;;;;;;;5055713;28;46476;-68
2022/08/01 06:03:55;;;;;;;5.80;2.27;;;27.60;18.90;;;;;;5056076;28;47126;-68
2022/08/01 06:06:22;;;;;;;5.13;2.40;;;26.60;19.40;;;;;;5056867;28;46604;-67
2022/08/01 06:08:48;;;;;;;8.30;2.40;;;25.90;21.40;;;;;;5057690;28;46311;-68
2022/08/01 06:11:16;;;;;;;4.60;2.77;;;;;;;;;;5057160;28;45966;-68
2022/08/01 06:13:42;;;;;;;4.00;2.87;;;;;;;;;;5056630;28;46473;-69
2022/08/01 06:16:09;;;;;;;6.80;2.83;;;24.90;21.40;;;;;;5057703;28;46590;-69
2022/08/01 06:18:35;;;;;;;8.73;2.47;;;;;;;;;;5054446;28;46441;-68
2022/08/01 06:21:01;;;;;;;6.47;2.50;;;;;;;;;;5055390;28;46741;-68
2022/08/01 06:23:27;;;;;;;6.43;2.67;;;;;;;;;;5055770;28;46541;-68
2022/08/01 06:25:54;;;;;;;4.00;2.57;;;24.40;22.90;;;;;;5057142;28;46661;-69
2022/08/01 06:28:20;;;;;;;5.67;2.87;;;;;;;;;;5057393;28;46365;-66
2022/08/01 06:30:46;;;;;;;4.83;2.63;;;;;;;;;;5058992;28;46410;-66
2022/08/01 06:33:12;;;;;;;5.20;2.63;;;;;;;;;;5057909;28;47052;-66
2022/08/01 06:35:38;;;;;;;7.27;2.97;;;;;;;;;;5059205;28;46451;-66
2022/08/01 06:38:03;;;;;;;4.80;2.50;;;24.80;23.70;;;;;;5057971;28;45863;-67
2022/08/01 06:40:29;;;;;;;3.77;2.33;;;25.30;23.10;;;;;;5059406;28;46588;-69
2022/08/01 06:42:55;;;;;;;4.60;2.80;;;;;;;;;;5057971;28;46414;-68
2022/08/01 06:45:22;;;;;;;4.80;3.10;;;25.20;18.90;;;;;;5058477;28;46457;-68
2022/08/01 06:47:48;;;;;;;4.77;2.57;;;25.20;20.80;;;;;;5060535;28;46367;-68
2022/08/01 06:50:14;;;;;;;7.10;2.60;;;25.50;18.20;;;;;;5062368;28;46460;-69
2022/08/01 06:52:40;;;;;;;4.47;2.97;;;25.60;18.80;;;;;;5062628;28;48093;-67
2022/08/01 06:55:06;;;;;;;10.33;2.97;;;25.20;19.80;;;;;;5072281;28;46411;-67
2022/08/01 06:57:32;;;;;;;6.70;2.70;;;25.00;20.80;;;;;;5067549;28;46759;-68
2022/08/01 07:00:02;;;;;;;4.20;2.23;;;24.50;22.10;;;;;;5071717;28;46538;-69
2022/08/01 07:02:28;;;;;;;5.13;2.60;;;;;;;;;;5068788;28;46397;-70
2022/08/01 07:04:54;;;;;;;5.33;3.00;;;;;;;;;;5068585;28;45856;-67
2022/08/01 07:07:20;;;;;;;4.70;3.10;;;;;;;;;;5070462;28;46368;-65
2022/08/01 07:09:46;;;;;;;3.70;2.40;;;24.40;25.40;;;;;;5069318;28;46397;-65
2022/08/01 07:12:12;;;;;;;6.33;3.20;;;;;;;;;;5069038;28;46145;-64
2022/08/01 07:14:38;;;;;;;3.73;2.27;;;;;;;;;;5069960;27;46362;-67
2022/08/01 07:17:03;;;;;;;5.30;2.67;;;24.80;24.70;;;;;;5068824;27;46518;-64
2022/08/01 07:19:29;;;;;;;6.10;2.60;;;;;;;;;;5069879;27;46607;-67
2022/08/01 07:21:55;;;;;;;9.53;2.87;;;24.30;23.90;;;;;;5069687;28;46405;-67
2022/08/01 07:24:21;;;;;;;4.87;2.67;;;;;;;;;;5069312;28;45786;-66
2022/08/01 07:26:48;;;;;;;4.63;2.77;;;24.80;21.70;;;;;;5070107;28;46651;-69
2022/08/01 07:29:14;;;;;;;3.80;2.50;;;;;;;;;;5070913;28;45844;-67
2022/08/01 07:31:40;;;;;;;5.20;2.80;;;;;;;;;;5069182;28;47036;-66
2022/08/01 07:34:06;;;;;;;6.23;2.80;;;;;;;;;;5069497;27;46419;-66
2022/08/01 07:36:31;;;;;;;7.60;2.63;;;24.60;23.80;;;;;;5070324;28;46348;-66
2022/08/01 07:38:57;;;;;;;4.60;2.63;;;;;;;;;;5070737;28;46797;-65
2022/08/01 07:41:23;;;;;;;4.20;2.50;;;;;;;;;;5070353;28;47376;-67
2022/08/01 07:43:50;;;;;;;5.90;2.53;;;25.10;24.50;;;;;;5069778;28;46362;-64
2022/08/01 07:46:16;;;;;;;5.17;2.73;;;25.00;22.00;;;;;;5071155;28;46421;-67
2022/08/01 07:48:42;;;;;;;4.83;2.90;;;24.90;24.10;;;;;;5062874;28;46449;-67
2022/08/01 07:51:11;;;;;;;6.30;3.00;;;;;;;;;;5059463;28;46488;-67
2022/08/01 07:53:37;;;;;;;3.87;2.53;;;;;;;;;;5058093;28;46553;-67
2022/08/01 07:56:05;;;;;;;6.50;3.00;;;25.50;23.10;;;;;;5060858;28;46410;-67
2022/08/01 07:58:32;;;;;;;5.60;2.30;;;25.20;25.30;;;;;;5061777;28;46440;-67
2022/08/01 08:00:58;;;;;;;6.83;2.93;;;;;;;;;;5061390;28;49040;-67
2022/08/01 08:03:23;;;;;;;5.37;3.07;;;25.50;25.30;;;;;;5060690;28;46518;-67
2022/08/01 08:05:49;;;;;;;4.20;2.53;;;;;;;;;;5060406;28;46683;-66
2022/08/01 08:08:17;;;;;;;5.60;3.43;;;;;;;;;;5061106;28;46389;-66
2022/08/01 08:10:43;;;;;;;4.20;2.60;;;;;;;;;;5059493;28;46392;-67
2022/08/01 08:13:09;;;;;;;5.63;2.77;;;;;;;;;;5061167;28;46541;-66
2022/08/01 08:15:35;;;;;;;12.30;3.20;;;;;;;;;;5061370;28;46512;-66
2022/08/01 08:18:01;;;;;;;4.30;2.47;;;;;;;;;;5060929;28;46425;-65
2022/08/01 08:20:28;;;;;;;3.83;2.47;;;26.00;22.90;;;;;;5060506;28;46499;-67
2022/08/01 08:22:55;;;;;;;7.37;3.37;;;26.00;21.80;;;;;;5060085;28;46409;-69
2022/08/01 08:25:21;;;;;;;4.70;2.60;;;25.80;20.70;;;;;;5060888;28;46483;-66
2022/08/01 08:27:47;;;;;;;5.63;2.83;;;25.80;21.10;;;;;;5060273;28;46468;-66
2022/08/01 08:30:14;;;;;;;4.97;2.70;;;25.80;20.90;;;;;;5060697;28;47215;-67
2022/08/01 08:32:40;;;;;;;4.47;2.50;;;25.40;23.90;;;;;;5059887;28;46537;-66
2022/08/01 08:35:07;;;;;;;6.63;3.00;;;25.80;20.60;;;;;;5059935;28;45865;-67
2022/08/01 08:37:37;;;;;;;4.97;2.87;;;26.00;20.30;;;;;;5060336;28;46430;-67
2022/08/01 08:40:06;;;;;;;6.40;3.27;;;26.20;20.00;;;;;;5057768;28;46373;-68
2022/08/01 08:42:32;;;;;;;4.07;2.70;;;26.00;23.50;;;;;;5059381;28;46426;-67
2022/08/01 08:44:58;;;;;;;4.50;2.70;;;;;;;;;;5058530;28;46354;-68
2022/08/01 08:47:25;;;;;;;10.00;2.63;;;26.20;21.00;;;;;;5059917;28;46393;-67
2022/08/01 08:49:53;;;;;;;4.70;2.63;;;26.40;21.30;;;;;;5060176;28;47151;-67
2022/08/01 08:52:20;;;;;;;4.50;2.43;;;26.70;20.90;;;;;;5061330;28;46438;-67
2022/08/01 08:54:48;;;;;;;3.30;2.20;;;26.50;18.70;;;;;;5060173;28;46635;-66
2022/08/01 08:57:15;;;;;;;5.77;2.53;;;26.60;18.90;;;;;;5059999;28;46320;-67
2022/08/01 08:59:43;;;;;;;8.97;3.07;;;26.80;20.70;;;;;;5064309;28;46169;-67
2022/08/01 09:02:09;;;;;;;7.70;2.80;;;;;;;;;;5059359;28;46398;-65
2022/08/01 09:04:36;;;;;;;3.67;2.43;;;27.00;19.30;;;;;;5061741;28;46571;-70
2022/08/01 09:07:04;;;;;;;5.00;2.50;;;26.90;17.80;;;;;;5059637;28;46435;-66
2022/08/01 09:09:30;;;;;;;4.00;2.07;;;;;;;;;;5059500;28;46907;-66
2022/08/01 09:11:56;;;;;;;3.77;2.60;;;;;;;;;;5060563;28;46459;-66
2022/08/01 09:14:27;;;;;;;5.93;2.67;;;26.70;21.50;;;;;;5061314;28;46318;-67
2022/08/01 09:17:08;;;;;;;4.90;2.53;;;27.30;17.40;;;;;;5057615;28;46522;-67
2022/08/01 09:19:39;;;;;;;4.33;2.23;;;26.90;20.80;;;;;;5059949;28;46305;-67
2022/08/01 09:22:10;;;;;;;3.77;2.53;;;27.30;18.10;;;;;;5058106;28;46458;-68
2022/08/01 09:24:39;;;;;;;5.60;2.50;;;27.20;19.50;;;;;;5059306;28;46390;-67
2022/08/01 09:27:23;;;;;;;3.97;2.67;;;27.40;16.80;;;;;;5057999;28;46479;-68
2022/08/01 09:29:50;;;;;;;4.20;2.43;;;26.90;19.40;;;;;;5059944;28;46685;-68
2022/08/01 09:32:16;;;;;;;7.20;2.67;;;;;;;;;;5061165;28;46472;-68
2022/08/01 09:34:42;;;;;;;13.70;2.80;;;;;;;;;;5057512;28;46394;-68
2022/08/01 09:37:09;;;;;;;5.87;2.43;;;27.50;16.40;;;;;;5059466;28;46711;-68
2022/08/01 09:39:42;;;;;;;2.77;1.80;;;27.60;16.00;;;;;;5058594;28;47457;-68
2022/08/01 09:42:28;;;;;;;4.63;2.60;;;27.70;15.50;;;;;;5055707;28;46446;-68
2022/08/01 09:44:54;;;;;;;3.77;2.20;;;;;;;;;;5059347;28;46422;-67
2022/08/01 09:47:20;;;;;;;3.27;2.00;;;28.10;16.30;;;;;;5056608;28;46414;-67
2022/08/01 09:49:56;;;;;;;3.60;2.20;;;27.90;15.50;;;;;;5059334;28;46740;-65
2022/08/01 09:52:23;;;;;;;5.27;2.40;;;27.90;15.40;;;;;;5060658;28;46371;-67
2022/08/01 09:54:54;;;;;;;3.47;2.00;;;28.00;15.10;;;;;;5055948;28;46452;-66
2022/08/01 09:57:20;;;;;;;3.10;1.97;;;;;;;;;;5056139;28;45956;-66
2022/08/01 09:59:52;;;;;;;3.60;2.40;;;27.90;14.70;;;;;;5057640;28;47277;-67
2022/08/01 10:02:28;;;;;;;5.00;2.10;;;28.10;15.40;;;;;;5056470;28;46393;-66
2022/08/01 10:04:54;;;;;;;5.50;1.87;;;;;;;;;;5055097;28;45820;-67
2022/08/01 10:07:21;;;;;;;7.60;2.10;;;;;;;;;;5055920;28;46847;-67
2022/08/01 10:09:47;;;;;;;4.83;1.83;;;;;;;;;;5054635;28;46983;-67
2022/08/01 10:12:16;;;;;;;4.00;2.10;;;27.90;14.40;;;;;;5052746;28;46378;-65
2022/08/01 10:14:43;;;;;;;5.77;2.10;;;27.80;14.50;;;;;;5057562;28;46429;-66
2022/08/01 10:17:12;;;;;;;3.57;2.00;;;28.10;14.00;;;;;;5055119;28;46731;-66
2022/08/01 10:19:41;;;;;;;3.30;1.87;;;28.30;13.70;;;;;;5057088;28;46953;-66
2022/08/01 10:22:08;;;;;;;3.87;1.80;;;28.40;13.70;;;;;;5060237;28;46310;-66
2022/08/01 10:24:38;;;;;;;4.70;1.90;;;28.20;13.00;;;;;;5061940;28;46424;-66
2022/08/01 10:27:09;;;;;;;4.80;2.03;;;28.50;13.20;;;;;;5059745;28;46519;-66
2022/08/01 10:29:37;;;;;;;4.37;2.03;;;28.40;12.50;;;;;;5063975;28;46428;-66
2022/08/01 10:32:09;;;;;;;2.70;1.80;;;28.70;12.30;;;;;;5063708;28;46773;-66
2022/08/01 10:34:36;;;;;;;4.03;2.00;;;29.00;12.50;;;;;;5062846;28;45860;-66
2022/08/01 10:37:04;;;;;;;3.60;2.00;;;29.30;12.10;;;;;;5062661;28;46507;-66
2022/08/01 10:39:31;;;;;;;4.97;2.27;;;29.50;11.70;;;;;;5061717;28;46383;-66
2022/08/01 10:41:57;;;;;;;3.00;1.63;;;29.50;11.50;;;;;;5062949;28;46297;-67
2022/08/01 10:44:28;;;;;;;5.00;2.00;;;29.40;11.30;;;;;;5058540;28;46478;-66
2022/08/01 10:47:06;;;;;;;5.40;2.20;;;29.30;11.60;;;;;;5060289;28;46624;-66
2022/08/01 10:49:36;;;;;;;4.17;2.10;;;29.30;11.30;;;;;;5059740;28;46539;-68
2022/08/01 10:52:02;;;;;;;9.80;1.83;;;32.60;12.80;;;;;;5062463;28;46400;-67
2022/08/01 10:54:28;;;;;;;2.70;1.70;;;;;;;;;;5062214;28;46492;-67
2022/08/01 10:56:56;;;;;;;2.87;1.70;;;30.20;10.80;;;;;;5061657;28;46364;-67
2022/08/01 10:59:22;;;;;;;4.03;1.70;;;;;;;;;;5061184;28;46961;-66
2022/08/01 11:02:00;;;;;;;5.17;2.10;;;29.70;9.70;;;;;;5060053;28;45910;-65
2022/08/01 11:04:57;;;;;;;2.97;1.50;;;29.90;10.10;;;;;;5059809;28;46475;-67
2022/08/01 11:07:43;;;;;;;3.40;1.70;;;30.10;9.70;;;;;;5041579;28;46894;-66
2022/08/01 11:10:16;;;;;;;4.17;1.70;;;30.00;9.50;;;;;;5060713;28;46882;-67
2022/08/01 11:12:42;;;;;;;5.90;1.80;;;30.00;9.60;;;;;;5060903;28;46621;-67
2022/08/01 11:15:11;;;;;;;9.57;1.87;;;29.70;9.40;;;;;;5059831;28;46790;-67
2022/08/01 11:17:47;;;;;;;3.73;1.50;;;29.20;9.90;;;;;;5060061;28;45800;-66
2022/08/01 11:20:16;;;;;;;2.50;1.30;;;29.30;10.40;;;;;;5060654;28;46543;-67
2022/08/01 11:23:06;;;;;;;3.33;1.67;;;29.30;9.90;;;;;;5061659;28;46593;-67
2022/08/01 11:25:37;;;;;;;5.37;2.07;;;29.40;10.20;;;;;;5060417;28;46463;-67
2022/08/01 11:28:19;;;;;;;3.60;1.73;;;29.40;10.20;;;;;;5060380;28;46622;-67
2022/08/01 11:30:45;;;;;;;3.17;1.50;;;;;;;;;;5059854;28;46496;-66
2022/08/01 11:33:12;;;;;;;4.37;1.80;;;29.20;9.40;;;;;;5057530;28;46394;-65
2022/08/01 11:36:03;;;;;;;3.33;1.70;;;29.30;10.50;;;;;;5059003;28;45864;-66
2022/08/01 11:38:30;;;;;;;2.80;1.50;;;;;;;;;;5060896;28;45958;-66
2022/08/01 11:41:24;;;;;;;3.50;1.50;;;29.70;9.30;;;;;;5058750;28;47342;-66
2022/08/01 11:43:59;;;;;;;4.43;1.97;;;30.00;9.40;;;;;;5059223;28;46483;-69
2022/08/01 11:47:03;;;;;;;3.97;2.00;;;30.50;7.90;;;;;;5061389;28;46400;-70
2022/08/01 11:49:29;;;;;;;5.63;1.80;;;;;;;;;;5059222;28;46432;-67
2022/08/01 11:52:09;;;;;;;4.10;2.10;;;30.80;7.90;;;;;;5060603;28;46405;-69
2022/08/01 11:54:37;;;;;;;2.30;1.40;;;30.80;7.40;;;;;;5060122;28;47277;-68
2022/08/01 11:57:08;;;;;;;2.80;1.70;;;31.00;7.30;;;;;;5056739;28;46408;-69
2022/08/01 11:59:55;;;;;;;2.40;1.40;;;30.60;5.90;;;;;;5059982;28;46470;-66
2022/08/01 12:02:24;;;;;;;3.13;1.70;;;30.60;6.90;;;;;;5060412;28;46758;-67
2022/08/01 12:04:59;;;;;;;3.90;1.87;;;30.50;7.30;;;;;;5058454;28;45900;-67
2022/08/01 12:07:27;;;;;;;4.30;2.10;;;30.40;6.30;;;;;;5059600;28;46444;-68
2022/08/01 12:10:13;;;;;;;2.90;1.90;;;30.20;6.50;;;;;;5060461;28;46699;-67
2022/08/01 12:12:50;;;;;;;6.90;2.07;;;30.30;6.30;;;;;;5060642;28;45973;-67
2022/08/01 12:15:17;;;;;;;5.00;1.90;;;30.50;6.70;;;;;;5060675;28;46609;-68
2022/08/01 12:17:46;;;;;;;3.27;1.60;;;30.60;7.10;;;;;;5060316;28;46482;-68
2022/08/01 12:20:15;;;;;;;3.70;1.63;;;30.30;5.70;;;;;;5061710;28;46444;-67
2022/08/01 12:22:41;;;;;;;5.10;1.90;;;30.30;6.80;;;;;;5060563;28;46412;-68
2022/08/01 12:25:09;;;;;;;2.90;1.50;;;30.40;7.60;;;;;;5063774;28;46445;-67
2022/08/01 12:27:35;;;;;;;9.67;1.50;;;30.90;6.70;;;;;;5061805;28;46393;-66
2022/08/01 12:30:01;;;;;;;14.37;2.03;;;31.30;6.90;;;;;;5059464;28;46459;-69
2022/08/01 12:32:33;;;;;;;3.80;1.67;;;30.70;5.60;;;;;;5060140;28;46432;-67
2022/08/01 12:35:16;;;;;;;4.30;1.47;;;30.50;5.50;;;;;;5059629;28;46537;-68
2022/08/01 12:37:47;;;;;;;3.10;1.83;;;30.30;5.50;;;;;;5058436;28;46486;-69
2022/08/01 12:40:18;;;;;;;4.00;1.60;;;29.90;5.50;;;;;;5059269;28;46788;-69
2022/08/01 12:42:48;;;;;;;3.57;2.00;;;29.60;6.80;;;;;;5058465;28;46445;-69
2022/08/01 12:45:17;;;;;;;3.70;1.70;;;29.20;7.00;;;;;;5059070;28;46891;-68
2022/08/01 12:47:43;;;;;;;5.07;1.70;;;;;;;;;;5058501;28;46543;-71
2022/08/01 12:50:27;;;;;;;4.90;1.63;;;28.70;8.90;;;;;;5060042;28;45911;-68
2022/08/01 12:52:54;;;;;;;5.60;1.50;;;;;;;;;;5057905;28;46315;-70
2022/08/01 12:55:21;;;;;;;14.53;2.23;;;27.40;11.10;;;;;;5058185;28;46518;-68
2022/08/01 12:57:52;;;;;;;3.30;1.87;;;26.70;13.50;;;;;;5058582;28;46362;-68
2022/08/01 13:00:18;;;;;;;11.13;2.63;;;;;;;;;;5058909;28;46425;-68
2022/08/01 13:02:46;;;;;;;7.20;2.67;;;25.50;17.40;;;;;;5060219;28;46496;-67
2022/08/01 13:05:13;;;;;;;6.73;2.57;;;25.50;19.90;;;;;;5060258;28;46740;-67
2022/08/01 13:07:44;;;;;;;9.47;2.60;;;25.80;18.10;;;;;;5058688;28;46473;-67
2022/08/01 13:10:11;;;;;;;4.43;1.90;;;26.40;18.60;;;;;;5058116;28;46435;-68
2022/08/01 13:12:37;;;;;;;6.60;2.10;;;26.50;19.50;;;;;;5059314;28;46474;-67
2022/08/01 13:15:25;;;;;;;4.90;2.40;;;26.60;19.50;;;;;;5060075;28;46729;-68
2022/08/01 13:17:54;;;;;;;6.10;2.47;;;26.20;22.10;;;;;;5054099;28;46424;-69
2022/08/01 13:20:23;;;;;;;3.57;2.13;;;26.50;23.00;;;;;;5057835;28;45845;-69
2022/08/01 13:22:50;;;;;;;4.03;2.00;;;26.40;20.80;;;;;;5058288;28;47118;-68
2022/08/01 13:25:16;;;;;;;7.90;2.57;;;26.30;20.60;;;;;;5059716;28;46473;-69